createdAt,value
2019-03-21T00:01:48.329Z,99.90
2019-03-21T00:04:20.887Z,99.90
2019-03-21T00:06:53.670Z,99.90
2019-03-21T00:09:26.287Z,99.90
2019-03-21T00:12:07.515Z,99.90
2019-03-21T00:15:11.431Z,99.90
2019-03-21T00:17:48.513Z,99.90
2019-03-21T00:20:22.220Z,99.90
2019-03-21T00:22:54.720Z,99.90
2019-03-21T00:25:28.708Z,99.90
2019-03-21T00:28:01.509Z,99.90
2019-03-21T00:30:34.807Z,99.90
2019-03-21T00:33:07.305Z,99.90
2019-03-21T00:35:40.593Z,99.90
2019-03-21T00:38:13.215Z,99.90
2019-03-21T00:40:46.663Z,99.90
2019-03-21T00:43:19.476Z,99.90
2019-03-21T00:45:52.239Z,99.90
2019-03-21T00:48:24.781Z,99.90
2019-03-21T00:50:57.565Z,99.90
2019-03-21T00:53:29.864Z,99.90
2019-03-21T00:56:02.280Z,99.90
2019-03-21T00:58:34.827Z,99.90
2019-03-21T01:01:07.760Z,99.90
2019-03-21T01:03:40.458Z,99.90
2019-03-21T01:06:12.907Z,99.90
2019-03-21T01:08:45.569Z,99.90
2019-03-21T01:11:18.176Z,99.90
2019-03-21T01:13:50.788Z,99.90
2019-03-21T01:16:23.380Z,99.90
2019-03-21T01:18:55.990Z,99.90
2019-03-21T01:21:28.471Z,99.90
2019-03-21T01:24:05.306Z,99.90
2019-03-21T01:26:38.067Z,99.90
2019-03-21T01:29:10.701Z,99.90
2019-03-21T01:31:43.139Z,99.90
2019-03-21T01:34:16.043Z,99.90
2019-03-21T01:36:48.591Z,99.90
2019-03-21T01:39:20.707Z,99.90
2019-03-21T01:41:53.004Z,99.90
2019-03-21T01:44:25.641Z,99.90
2019-03-21T01:46:58.064Z,99.90
2019-03-21T01:49:30.594Z,99.90
2019-03-21T01:52:03.115Z,99.90
2019-03-21T01:54:35.728Z,99.90
2019-03-21T01:57:08.204Z,99.90
2019-03-21T01:59:40.763Z,99.90
2019-03-21T02:02:13.451Z,99.90
2019-03-21T02:04:46.318Z,99.90
2019-03-21T02:07:19.040Z,99.90
2019-03-21T02:09:51.519Z,99.90
2019-03-21T02:12:24.102Z,99.90
2019-03-21T02:14:56.611Z,99.90
2019-03-21T02:17:29.168Z,99.90
2019-03-21T02:20:01.759Z,99.90
2019-03-21T02:22:34.178Z,99.90
2019-03-21T02:25:08.733Z,99.90
2019-03-21T02:27:41.377Z,99.90
2019-03-21T02:30:18.233Z,99.90
2019-03-21T02:32:52.911Z,99.90
2019-03-21T02:35:25.336Z,99.90
2019-03-21T02:37:57.917Z,99.90
2019-03-21T02:40:30.513Z,99.90
2019-03-21T02:43:09.361Z,99.90
2019-03-21T02:45:41.902Z,99.90
2019-03-21T02:48:18.898Z,99.90
2019-03-21T02:50:51.337Z,99.90
2019-03-21T02:53:27.701Z,99.90
2019-03-21T02:55:59.981Z,99.90
2019-03-21T02:58:35.392Z,99.90
2019-03-21T03:01:07.883Z,99.90
2019-03-21T03:03:49.929Z,99.90
2019-03-21T03:06:22.532Z,99.90
2019-03-21T03:09:00.789Z,99.90
2019-03-21T03:11:33.149Z,99.90
2019-03-21T03:14:10.462Z,99.90
2019-03-21T03:16:42.872Z,99.90
2019-03-21T03:19:15.452Z,99.90
2019-03-21T03:21:47.916Z,99.90
2019-03-21T03:24:38.402Z,99.90
2019-03-21T03:27:10.760Z,99.90
2019-03-21T03:29:43.256Z,99.90
2019-03-21T03:32:15.734Z,99.90
2019-03-21T03:34:51.315Z,99.90
2019-03-21T03:37:24.150Z,99.90
2019-03-21T03:40:03.886Z,99.90
2019-03-21T03:42:36.295Z,99.90
2019-03-21T03:45:13.050Z,99.90
2019-03-21T03:47:45.369Z,99.90
2019-03-21T03:50:18.037Z,99.90
2019-03-21T03:52:50.524Z,99.90
2019-03-21T03:55:23.444Z,99.90
2019-03-21T03:57:57.565Z,99.90
2019-03-21T04:00:30.101Z,99.90
2019-03-21T04:03:02.755Z,99.90
2019-03-21T04:05:35.586Z,99.90
2019-03-21T04:08:08.305Z,99.90
2019-03-21T04:10:43.678Z,99.90
2019-03-21T04:13:16.589Z,99.90
2019-03-21T04:15:53.142Z,99.90
2019-03-21T04:18:23.537Z,99.90
2019-03-21T04:20:56.760Z,99.90
2019-03-21T04:23:29.438Z,99.90
2019-03-21T04:26:16.493Z,99.90
2019-03-21T04:28:49.095Z,99.90
2019-03-21T04:31:21.737Z,99.90
2019-03-21T04:33:56.674Z,99.90
2019-03-21T04:36:29.391Z,99.90
2019-03-21T04:39:02.309Z,99.90
2019-03-21T04:41:34.960Z,99.90
2019-03-21T04:44:07.783Z,99.90
2019-03-21T04:46:41.277Z,99.90
2019-03-21T04:49:13.874Z,99.90
2019-03-21T04:51:46.833Z,99.90
2019-03-21T04:54:19.196Z,99.90
2019-03-21T04:56:58.695Z,99.90
2019-03-21T04:59:31.312Z,99.90
2019-03-21T05:02:03.916Z,99.90
2019-03-21T05:04:36.378Z,99.90
2019-03-21T05:07:17.797Z,99.90
2019-03-21T05:09:50.349Z,99.90
2019-03-21T05:12:25.763Z,99.90
2019-03-21T05:14:58.237Z,99.90
2019-03-21T05:17:40.154Z,99.90
2019-03-21T05:20:16.674Z,99.90
2019-03-21T05:22:49.719Z,99.90
2019-03-21T05:25:22.558Z,99.90
2019-03-21T05:28:02.419Z,99.90
2019-03-21T05:30:43.221Z,99.90
2019-03-21T05:33:16.157Z,99.90
2019-03-21T05:35:48.734Z,99.90
2019-03-21T05:38:21.420Z,99.90
2019-03-21T05:40:54.563Z,99.90
2019-03-21T05:43:50.438Z,99.90
2019-03-21T05:46:26.992Z,99.90
2019-03-21T05:48:58.016Z,99.90
2019-03-21T05:51:30.595Z,99.90
2019-03-21T05:54:03.381Z,99.90
2019-03-21T05:56:36.233Z,99.90
2019-03-21T05:59:08.837Z,99.90
2019-03-21T06:01:41.650Z,99.90
2019-03-21T06:04:14.305Z,99.90
2019-03-21T06:06:57.954Z,99.90
2019-03-21T06:09:30.677Z,99.90
2019-03-21T06:12:03.227Z,99.90
2019-03-21T06:14:36.871Z,99.90
2019-03-21T06:17:09.593Z,99.90
2019-03-21T06:20:08.693Z,99.90
2019-03-21T06:23:26.132Z,99.90
2019-03-21T06:26:29.037Z,99.90
2019-03-21T06:29:01.823Z,99.90
2019-03-21T06:31:34.522Z,99.90
2019-03-21T06:34:07.191Z,99.90
2019-03-21T06:36:40.019Z,99.90
2019-03-21T06:39:12.862Z,99.90
2019-03-21T06:41:45.965Z,99.90
2019-03-21T06:44:18.590Z,99.90
2019-03-21T06:46:51.122Z,99.90
2019-03-21T06:49:24.428Z,99.90
2019-03-21T06:51:57.275Z,99.90
2019-03-21T06:54:32.474Z,99.90
2019-03-21T06:57:05.145Z,99.90
2019-03-21T06:59:37.848Z,99.90
2019-03-21T07:02:10.488Z,99.90
2019-03-21T07:04:42.916Z,99.90
2019-03-21T07:07:15.452Z,99.90
2019-03-21T07:09:48.212Z,99.90
2019-03-21T07:12:26.904Z,99.90
2019-03-21T07:14:59.898Z,99.90
2019-03-21T07:17:41.409Z,99.90
2019-03-21T07:20:14.780Z,99.90
2019-03-21T07:22:47.428Z,99.90
2019-03-21T07:25:20.097Z,99.90
2019-03-21T07:27:52.748Z,99.90
2019-03-21T07:30:25.421Z,99.90
2019-03-21T07:32:58.024Z,99.90
2019-03-21T07:35:30.621Z,99.90
2019-03-21T07:38:03.281Z,99.90
2019-03-21T07:40:36.276Z,99.90
2019-03-21T07:43:08.982Z,99.90
2019-03-21T07:45:42.063Z,99.90
2019-03-21T07:48:14.664Z,99.80
2019-03-21T07:50:47.439Z,99.30
2019-03-21T07:53:22.043Z,97.70
2019-03-21T07:55:54.565Z,97.90
2019-03-21T07:58:27.302Z,96.50
2019-03-21T08:01:00.620Z,96.00
2019-03-21T08:03:33.124Z,95.20
2019-03-21T08:06:05.763Z,95.10
2019-03-21T08:08:38.311Z,94.70
2019-03-21T08:11:11.119Z,94.30
2019-03-21T08:13:43.657Z,93.40
2019-03-21T08:16:16.327Z,93.00
2019-03-21T08:18:48.837Z,91.80
2019-03-21T08:21:21.392Z,91.60
2019-03-21T08:23:54.008Z,91.80
2019-03-21T08:26:27.450Z,90.90
2019-03-21T08:29:00.324Z,90.20
2019-03-21T08:31:32.904Z,90.00
2019-03-21T08:34:15.731Z,89.90
2019-03-21T08:36:49.154Z,89.60
2019-03-21T08:39:21.586Z,87.60
2019-03-21T08:41:54.407Z,87.50
2019-03-21T08:44:30.231Z,85.60
2019-03-21T08:47:02.636Z,84.20
2019-03-21T08:49:41.455Z,83.80
2019-03-21T08:52:13.880Z,83.50
2019-03-21T08:54:53.794Z,81.60
2019-03-21T08:57:26.426Z,81.70
2019-03-21T09:00:06.153Z,80.20
2019-03-21T09:02:38.965Z,79.80
2019-03-21T09:05:15.136Z,79.80
2019-03-21T09:07:48.002Z,79.60
2019-03-21T09:10:24.510Z,77.90
2019-03-21T09:12:57.754Z,76.80
2019-03-21T09:15:30.490Z,75.70
2019-03-21T09:18:03.170Z,73.60
2019-03-21T09:20:47.792Z,73.80
2019-03-21T09:23:21.073Z,73.00
2019-03-21T09:25:57.063Z,72.50
2019-03-21T09:28:30.610Z,70.80
2019-03-21T09:31:07.287Z,70.60
2019-03-21T09:33:40.311Z,70.40
2019-03-21T09:36:18.193Z,68.70
2019-03-21T09:38:51.308Z,68.80
2019-03-21T09:41:28.228Z,70.50
2019-03-21T09:44:01.939Z,70.50
2019-03-21T09:46:37.754Z,68.60
2019-03-21T09:49:11.309Z,69.60
2019-03-21T09:51:48.181Z,67.50
2019-03-21T09:54:21.044Z,67.70
2019-03-21T09:56:58.459Z,65.90
2019-03-21T09:59:31.204Z,65.10
2019-03-21T10:02:07.057Z,65.30
2019-03-21T10:04:40.580Z,65.20
2019-03-21T10:07:13.204Z,64.60
2019-03-21T10:09:46.142Z,64.50
2019-03-21T10:12:34.863Z,64.30
2019-03-21T10:15:07.611Z,63.20
2019-03-21T10:17:40.253Z,63.00
2019-03-21T10:20:12.920Z,62.30
2019-03-21T10:22:53.327Z,62.80
2019-03-21T10:25:26.782Z,63.40
2019-03-21T10:27:59.967Z,63.10
2019-03-21T10:30:44.176Z,62.20
2019-03-21T10:33:17.785Z,60.80
2019-03-21T10:35:51.640Z,61.50
2019-03-21T10:38:24.508Z,60.90
2019-03-21T10:40:57.773Z,60.00
2019-03-21T10:43:33.859Z,60.50
2019-03-21T10:46:06.480Z,60.40
2019-03-21T10:48:45.005Z,61.50
2019-03-21T10:51:17.507Z,59.20
2019-03-21T10:53:53.346Z,59.80
2019-03-21T10:56:26.240Z,58.90
2019-03-21T10:58:58.914Z,58.90
2019-03-21T11:01:31.646Z,58.40
2019-03-21T11:04:12.427Z,58.40
2019-03-21T11:06:44.979Z,58.40
2019-03-21T11:09:21.775Z,57.60
2019-03-21T11:11:55.025Z,57.60
2019-03-21T11:14:32.127Z,58.40
2019-03-21T11:17:07.804Z,57.30
2019-03-21T11:19:40.730Z,57.30
2019-03-21T11:22:13.349Z,56.80
2019-03-21T11:24:55.390Z,56.40
2019-03-21T11:27:28.686Z,56.40
2019-03-21T11:30:01.221Z,55.50
2019-03-21T11:32:39.030Z,56.30
2019-03-21T11:35:15.419Z,56.10
2019-03-21T11:37:48.648Z,57.80
2019-03-21T11:40:24.448Z,57.90
2019-03-21T11:42:57.229Z,57.30
2019-03-21T11:45:34.513Z,57.50
2019-03-21T11:48:07.631Z,57.20
2019-03-21T11:50:46.610Z,57.10
2019-03-21T11:53:20.090Z,57.50
2019-03-21T11:55:56.170Z,56.70
2019-03-21T11:58:29.423Z,56.40
2019-03-21T12:01:02.001Z,56.60
2019-03-21T12:03:34.652Z,56.30
2019-03-21T12:06:07.697Z,55.50
2019-03-21T12:08:43.354Z,56.90
2019-03-21T12:11:16.183Z,56.50
2019-03-21T12:13:50.739Z,56.60
2019-03-21T12:16:23.812Z,56.80
2019-03-21T12:18:56.550Z,56.80
2019-03-21T12:21:29.929Z,56.20
2019-03-21T12:24:03.327Z,55.80
2019-03-21T12:26:37.113Z,55.60
2019-03-21T12:29:09.999Z,55.30
2019-03-21T12:31:43.098Z,55.80
2019-03-21T12:34:15.991Z,55.70
2019-03-21T12:36:48.701Z,55.90
2019-03-21T12:39:21.523Z,56.20
2019-03-21T12:41:54.773Z,56.50
2019-03-21T12:44:28.456Z,56.10
2019-03-21T12:47:01.668Z,56.30
2019-03-21T12:49:34.342Z,56.40
2019-03-21T12:52:07.197Z,56.30
2019-03-21T12:54:39.720Z,56.80
2019-03-21T12:57:12.372Z,56.60
2019-03-21T12:59:46.440Z,56.30
2019-03-21T13:02:19.116Z,56.80
2019-03-21T13:04:51.577Z,57.00
2019-03-21T13:07:24.129Z,55.90
2019-03-21T13:09:57.515Z,57.50
2019-03-21T13:12:30.699Z,57.10
2019-03-21T13:15:04.352Z,57.10
2019-03-21T13:17:37.738Z,56.60
2019-03-21T13:20:10.444Z,56.90
2019-03-21T13:22:52.564Z,56.70
2019-03-21T13:25:17.753Z,56.80
2019-03-21T13:27:51.735Z,56.10
2019-03-21T13:30:24.621Z,56.00
2019-03-21T13:33:00.445Z,55.60
2019-03-21T13:35:33.726Z,55.40
2019-03-21T13:38:09.547Z,55.00
2019-03-21T13:40:42.826Z,55.50
2019-03-21T13:43:16.002Z,55.80
2019-03-21T13:45:49.492Z,56.10
2019-03-21T13:48:22.025Z,55.40
2019-03-21T13:50:58.137Z,55.60
2019-03-21T13:53:31.505Z,55.50
2019-03-21T13:56:05.542Z,55.50
2019-03-21T13:58:38.007Z,55.90
2019-03-21T14:01:10.672Z,56.60
2019-03-21T14:03:43.368Z,56.90
2019-03-21T14:06:17.355Z,56.70
2019-03-21T14:08:50.249Z,56.80
2019-03-21T14:11:22.904Z,56.50
2019-03-21T14:13:55.776Z,56.60
2019-03-21T14:16:28.443Z,56.50
2019-03-21T14:19:01.221Z,56.80
2019-03-21T14:21:34.331Z,56.60
2019-03-21T14:24:06.948Z,56.50
2019-03-21T14:26:39.608Z,56.80
2019-03-21T14:29:13.063Z,57.50
2019-03-21T14:31:46.145Z,58.00
2019-03-21T14:34:19.475Z,56.90
2019-03-21T14:36:52.398Z,57.30
2019-03-21T14:39:24.953Z,57.00
2019-03-21T14:41:57.701Z,57.40
2019-03-21T14:44:30.179Z,56.70
2019-03-21T14:47:02.998Z,56.20
2019-03-21T14:49:39.589Z,56.60
2019-03-21T14:52:12.687Z,56.60
2019-03-21T14:54:51.713Z,56.90
2019-03-21T14:57:24.664Z,56.40
2019-03-21T15:00:01.072Z,56.80
2019-03-21T15:02:34.472Z,56.70
2019-03-21T15:05:16.990Z,57.00
2019-03-21T15:07:49.583Z,56.90
2019-03-21T15:10:24.248Z,57.60
2019-03-21T15:12:57.452Z,57.90
2019-03-21T15:15:33.283Z,58.20
2019-03-21T15:18:06.173Z,58.50
2019-03-21T15:20:42.812Z,59.00
2019-03-21T15:23:16.255Z,59.40
2019-03-21T15:25:49.267Z,59.70
2019-03-21T15:28:25.631Z,59.10
2019-03-21T15:30:59.625Z,59.90
2019-03-21T15:33:40.314Z,59.80
2019-03-21T15:36:13.243Z,60.60
2019-03-21T15:38:46.811Z,60.00
2019-03-21T15:41:24.381Z,60.10
2019-03-21T15:43:57.440Z,60.80
2019-03-21T15:46:30.431Z,61.60
2019-03-21T15:49:03.239Z,60.90
2019-03-21T15:51:39.893Z,61.30
2019-03-21T15:54:12.519Z,61.90
2019-03-21T15:56:56.523Z,62.00
2019-03-21T15:59:29.482Z,62.30
2019-03-21T16:02:05.525Z,62.10
2019-03-21T16:04:38.249Z,62.20
2019-03-21T16:07:10.929Z,63.00
2019-03-21T16:09:44.010Z,63.50
2019-03-21T16:12:19.980Z,62.90
2019-03-21T16:14:53.333Z,63.30
2019-03-21T16:17:36.556Z,64.00
2019-03-21T16:20:11.697Z,63.80
2019-03-21T16:22:47.720Z,64.30
2019-03-21T16:25:20.386Z,65.10
2019-03-21T16:27:55.677Z,64.80
2019-03-21T16:30:28.275Z,65.30
2019-03-21T16:33:01.109Z,66.50
2019-03-21T16:35:33.822Z,66.70
2019-03-21T16:38:10.715Z,67.20
2019-03-21T16:40:44.327Z,67.50
2019-03-21T16:43:29.266Z,67.80
2019-03-21T16:46:01.923Z,68.20
2019-03-21T16:48:36.389Z,68.50
2019-03-21T16:51:09.329Z,69.70
2019-03-21T16:53:49.676Z,70.00
2019-03-21T16:56:23.395Z,70.10
2019-03-21T16:58:58.690Z,70.30
2019-03-21T17:01:30.526Z,70.60
2019-03-21T17:04:09.551Z,71.90
2019-03-21T17:06:44.243Z,72.50
2019-03-21T17:09:16.921Z,73.00
2019-03-21T17:11:49.777Z,73.40
2019-03-21T17:14:30.152Z,73.40
2019-03-21T17:17:02.801Z,74.40
2019-03-21T17:19:41.929Z,75.70
2019-03-21T17:22:14.690Z,76.70
2019-03-21T17:24:47.395Z,75.80
2019-03-21T17:27:19.938Z,75.80
2019-03-21T17:29:55.330Z,76.30
2019-03-21T17:32:28.558Z,76.80
2019-03-21T17:35:05.729Z,76.70
2019-03-21T17:37:38.863Z,77.70
2019-03-21T17:40:17.536Z,77.40
2019-03-21T17:42:50.299Z,77.60
2019-03-21T17:45:26.236Z,77.50
2019-03-21T17:48:00.165Z,78.20
2019-03-21T17:50:41.861Z,78.30
2019-03-21T17:53:15.241Z,79.30
2019-03-21T17:56:02.388Z,79.60
2019-03-21T17:58:35.812Z,80.30
2019-03-21T18:01:08.640Z,81.20
2019-03-21T18:03:42.745Z,81.10
2019-03-21T18:06:15.483Z,81.70
2019-03-21T18:08:51.338Z,82.30
2019-03-21T18:11:23.900Z,83.40
2019-03-21T18:13:57.417Z,84.90
2019-03-21T18:16:36.335Z,85.20
2019-03-21T18:19:09.345Z,85.10
2019-03-21T18:21:48.167Z,85.10
2019-03-21T18:24:20.665Z,85.80
2019-03-21T18:26:57.056Z,86.20
2019-03-21T18:29:29.922Z,86.90
2019-03-21T18:32:02.932Z,87.50
2019-03-21T18:34:35.929Z,88.20
2019-03-21T18:37:12.523Z,88.60
2019-03-21T18:39:45.537Z,89.30
2019-03-21T18:42:25.236Z,89.70
2019-03-21T18:45:00.187Z,90.20
2019-03-21T18:47:33.348Z,90.50
2019-03-21T18:50:09.135Z,90.80
2019-03-21T18:52:41.900Z,91.20
2019-03-21T18:55:14.880Z,91.10
2019-03-21T18:57:51.644Z,91.40
2019-03-21T19:00:25.144Z,91.30
2019-03-21T19:03:05.119Z,91.60
2019-03-21T19:05:37.934Z,91.70
2019-03-21T19:08:14.243Z,92.00
2019-03-21T19:10:47.669Z,92.40
2019-03-21T19:13:24.926Z,92.30
2019-03-21T19:15:57.651Z,92.20
2019-03-21T19:18:36.649Z,92.60
2019-03-21T19:21:13.679Z,92.80
2019-03-21T19:23:46.945Z,93.00
2019-03-21T19:26:20.046Z,93.30
2019-03-21T19:28:57.360Z,93.60
2019-03-21T19:31:31.313Z,93.90
2019-03-21T19:34:04.413Z,94.10
2019-03-21T19:36:37.375Z,94.50
2019-03-21T19:39:14.570Z,94.70
2019-03-21T19:41:47.720Z,94.70
2019-03-21T19:44:27.974Z,94.90
2019-03-21T19:47:01.513Z,95.30
2019-03-21T19:49:40.531Z,95.40
2019-03-21T19:52:13.457Z,95.70
2019-03-21T19:54:49.354Z,96.00
2019-03-21T19:57:22.653Z,96.10
2019-03-21T19:59:55.811Z,96.30
2019-03-21T20:02:29.024Z,96.30
2019-03-21T20:05:08.903Z,96.40
2019-03-21T20:07:41.969Z,96.40
2019-03-21T20:10:25.722Z,96.70
2019-03-21T20:12:58.541Z,97.50
2019-03-21T20:15:31.779Z,97.40
2019-03-21T20:18:04.816Z,97.50
2019-03-21T20:20:38.430Z,97.70
2019-03-21T20:23:11.426Z,97.90
2019-03-21T20:25:50.616Z,97.90
2019-03-21T20:28:23.912Z,98.10
2019-03-21T20:30:59.851Z,98.40
2019-03-21T20:33:32.759Z,98.60
2019-03-21T20:36:08.892Z,98.60
2019-03-21T20:38:42.579Z,98.90
2019-03-21T20:41:28.842Z,99.10
2019-03-21T20:44:14.402Z,99.10
2019-03-21T20:46:38.333Z,99.00
2019-03-21T20:49:12.403Z,99.10
2019-03-21T20:51:45.570Z,99.40
2019-03-21T20:54:20.212Z,99.30
2019-03-21T20:56:54.211Z,99.40
2019-03-21T20:59:27.765Z,99.30
2019-03-21T21:02:02.879Z,99.60
2019-03-21T21:04:35.509Z,99.70
2019-03-21T21:07:09.203Z,99.90
2019-03-21T21:09:42.222Z,99.90
2019-03-21T21:12:15.403Z,99.90
2019-03-21T21:14:48.097Z,99.90
2019-03-21T21:17:20.695Z,99.90
2019-03-21T21:19:53.539Z,99.90
2019-03-21T21:22:26.240Z,99.90
2019-03-21T21:25:04.955Z,99.90
2019-03-21T21:27:48.665Z,99.90
2019-03-21T21:30:13.789Z,99.90
2019-03-21T21:32:46.461Z,99.90
2019-03-21T21:35:19.258Z,99.90
2019-03-21T21:37:52.363Z,99.90
2019-03-21T21:40:25.436Z,99.90
2019-03-21T21:42:58.154Z,99.90
2019-03-21T21:45:30.745Z,99.90
2019-03-21T21:48:03.537Z,99.90
2019-03-21T21:50:37.893Z,99.90
2019-03-21T21:53:12.541Z,99.90
2019-03-21T21:55:45.802Z,99.90
2019-03-21T21:58:18.660Z,99.90
2019-03-21T22:00:51.361Z,99.90
2019-03-21T22:03:24.380Z,99.90
2019-03-21T22:05:57.072Z,99.90
2019-03-21T22:08:29.492Z,99.90
2019-03-21T22:11:02.082Z,99.90
2019-03-21T22:13:34.660Z,99.90
2019-03-21T22:16:09.933Z,99.90
2019-03-21T22:18:41.602Z,99.90
2019-03-21T22:21:14.005Z,99.90
2019-03-21T22:23:46.753Z,99.90
2019-03-21T22:26:29.211Z,99.90
2019-03-21T22:28:53.626Z,99.90
2019-03-21T22:31:26.119Z,99.90
2019-03-21T22:33:58.758Z,99.90
2019-03-21T22:36:31.276Z,99.90
2019-03-21T22:39:04.016Z,99.90
2019-03-21T22:41:36.769Z,99.90
2019-03-21T22:44:09.258Z,99.90
2019-03-21T22:46:41.704Z,99.90
2019-03-21T22:49:14.312Z,99.90
2019-03-21T22:51:47.294Z,99.90
2019-03-21T22:54:19.862Z,99.90
2019-03-21T22:56:58.130Z,99.90
2019-03-21T22:59:31.324Z,99.90
2019-03-21T23:02:11.829Z,99.90
2019-03-21T23:04:44.603Z,99.90
2019-03-21T23:07:21.579Z,99.90
2019-03-21T23:09:54.310Z,99.90
2019-03-21T23:12:32.982Z,99.90
2019-03-21T23:15:06.567Z,99.90
2019-03-21T23:17:39.385Z,99.90
2019-03-21T23:20:12.486Z,99.90
2019-03-21T23:22:54.132Z,99.90
2019-03-21T23:25:26.777Z,99.90
2019-03-21T23:27:59.358Z,99.90
2019-03-21T23:30:33.505Z,99.90
2019-03-21T23:33:17.201Z,99.90
2019-03-21T23:35:49.749Z,99.90
2019-03-21T23:38:25.210Z,99.90
2019-03-21T23:40:57.791Z,99.90
2019-03-21T23:43:30.389Z,99.90
2019-03-21T23:46:03.183Z,99.90
2019-03-21T23:48:39.689Z,99.90
2019-03-21T23:51:12.212Z,99.90
2019-03-21T23:53:51.583Z,99.90
2019-03-21T23:56:24.106Z,99.90
2019-03-21T23:59:00.329Z,99.90
